createdAt,value
2022-09-28T00:04:14.667Z,10.83
2022-09-28T00:09:17.031Z,10.85
2022-09-28T00:14:18.684Z,10.81
2022-09-28T00:19:20.208Z,10.79
2022-09-28T00:24:26.629Z,10.73
2022-09-28T00:29:32.069Z,10.76
2022-09-28T00:34:36.833Z,10.78
2022-09-28T00:39:41.275Z,10.75
2022-09-28T00:44:56.123Z,10.77
2022-09-28T00:50:06.453Z,10.67
2022-09-28T00:55:13.556Z,10.66
2022-09-28T01:00:15.772Z,10.69
2022-09-28T01:05:18.747Z,10.69
2022-09-28T01:10:21.172Z,10.70
2022-09-28T01:15:26.754Z,10.75
2022-09-28T01:20:37.796Z,10.75
2022-09-28T01:25:53.801Z,10.73
2022-09-28T01:31:12.542Z,10.73
2022-09-28T01:36:21.126Z,10.75
2022-09-28T01:41:24.994Z,10.77
2022-09-28T01:46:48.391Z,10.76
2022-09-28T01:51:59.567Z,10.75
2022-09-28T01:57:09.121Z,10.76
2022-09-28T02:02:18.718Z,10.79
2022-09-28T02:07:31.929Z,10.83
2022-09-28T02:12:37.262Z,10.87
2022-09-28T02:17:39.427Z,10.91
2022-09-28T02:22:49.156Z,10.97
2022-09-28T02:27:59.706Z,10.99
2022-09-28T02:33:11.477Z,11.00
2022-09-28T02:38:14.642Z,11.02
2022-09-28T02:43:29.668Z,11.06
2022-09-28T02:49:20.872Z,11.05
2022-09-28T02:54:36.377Z,11.07
2022-09-28T02:59:57.569Z,11.11
2022-09-28T03:05:22.820Z,11.09
2022-09-28T03:10:37.215Z,11.05
2022-09-28T03:15:38.847Z,11.06
2022-09-28T03:20:40.352Z,11.08
2022-09-28T03:25:41.909Z,11.10
2022-09-28T03:30:43.463Z,11.11
2022-09-28T03:35:51.742Z,11.12
2022-09-28T03:40:59.336Z,11.14
2022-09-28T03:46:03.246Z,11.15
2022-09-28T03:51:10.651Z,11.16
2022-09-28T03:56:15.329Z,11.17
2022-09-28T04:01:17.853Z,11.19
2022-09-28T04:06:21.673Z,11.22
2022-09-28T04:11:24.174Z,11.25
2022-09-28T04:16:26.293Z,11.26
2022-09-28T04:21:42.173Z,11.26
2022-09-28T04:26:47.342Z,11.26
2022-09-28T04:31:51.049Z,11.29
2022-09-28T04:36:53.928Z,11.30
2022-09-28T04:41:55.601Z,11.30
2022-09-28T04:46:58.915Z,11.28
2022-09-28T04:52:04.683Z,11.24
2022-09-28T04:57:08.425Z,11.22
2022-09-28T05:02:14.942Z,11.19
2022-09-28T05:07:48.375Z,11.14
2022-09-28T05:12:49.856Z,11.17
2022-09-28T05:17:53.050Z,11.18
2022-09-28T05:23:01.343Z,11.18
2022-09-28T05:28:03.456Z,11.20
2022-09-28T05:33:23.337Z,11.21
2022-09-28T05:38:31.731Z,11.23
2022-09-28T05:43:33.323Z,11.21
2022-09-28T05:48:35.096Z,11.25
2022-09-28T05:53:37.292Z,11.30
2022-09-28T05:58:39.520Z,11.31
2022-09-28T06:03:44.813Z,11.32
2022-09-28T06:08:48.315Z,11.33
2022-09-28T06:14:15.934Z,11.28
2022-09-28T06:19:18.159Z,11.33
2022-09-28T06:24:38.285Z,11.33
2022-09-28T06:29:39.851Z,11.33
2022-09-28T06:34:42.785Z,11.34
2022-09-28T06:39:44.505Z,11.33
2022-09-28T06:44:47.052Z,11.25
2022-09-28T06:50:12.172Z,11.21
2022-09-28T06:55:50.616Z,11.22
2022-09-28T07:00:52.826Z,11.26
2022-09-28T07:05:55.962Z,11.15
2022-09-28T07:11:13.146Z,11.19
2022-09-28T07:17:01.675Z,11.15
2022-09-28T07:22:04.728Z,11.12
2022-09-28T07:27:07.343Z,11.21
2022-09-28T07:32:14.095Z,11.27
2022-09-28T07:37:28.083Z,11.36
2022-09-28T07:42:30.436Z,11.43
2022-09-28T07:47:35.308Z,11.52
2022-09-28T07:53:03.947Z,11.61
2022-09-28T07:58:15.368Z,11.71
2022-09-28T08:03:23.981Z,11.77
2022-09-28T08:08:27.661Z,11.85
2022-09-28T08:13:30.976Z,11.87
2022-09-28T08:18:38.648Z,11.93
2022-09-28T08:23:40.548Z,11.95
2022-09-28T08:28:43.426Z,11.95
2022-09-28T08:34:04.865Z,11.96
2022-09-28T08:39:25.075Z,11.99
2022-09-28T08:44:57.872Z,12.06
2022-09-28T08:50:26.896Z,12.10
2022-09-28T08:55:37.758Z,12.17
2022-09-28T09:00:52.807Z,12.22
2022-09-28T09:06:28.401Z,12.28
2022-09-28T09:12:00.730Z,12.27
2022-09-28T09:17:26.456Z,12.32
2022-09-28T09:23:05.816Z,12.39
2022-09-28T09:28:33.135Z,12.39
2022-09-28T09:34:19.583Z,12.35
2022-09-28T09:39:39.412Z,12.34
2022-09-28T09:45:27.052Z,12.37
2022-09-28T09:50:57.834Z,12.41
2022-09-28T09:56:14.923Z,12.48
2022-09-28T10:01:46.030Z,12.61
2022-09-28T10:07:01.278Z,12.75
2022-09-28T10:12:02.896Z,12.83
2022-09-28T10:17:05.501Z,12.94
2022-09-28T10:22:27.834Z,13.05
2022-09-28T10:27:35.887Z,13.12
2022-09-28T10:32:40.011Z,13.19
2022-09-28T10:37:57.021Z,13.23
2022-09-28T10:43:34.480Z,13.26
2022-09-28T10:48:51.390Z,13.32
2022-09-28T10:54:02.355Z,13.40
2022-09-28T10:59:29.145Z,13.44
2022-09-28T11:04:53.082Z,13.53
2022-09-28T11:09:56.172Z,13.58
2022-09-28T11:15:04.147Z,13.68
2022-09-28T11:20:27.344Z,13.77
2022-09-28T11:25:31.281Z,13.81
2022-09-28T11:30:40.681Z,13.85
2022-09-28T11:36:13.899Z,13.87
2022-09-28T11:41:43.237Z,13.88
2022-09-28T11:47:08.490Z,13.90
2022-09-28T11:52:18.445Z,13.94
2022-09-28T11:57:32.377Z,13.99
2022-09-28T12:02:39.585Z,13.94
2022-09-28T12:07:50.134Z,13.82
2022-09-28T12:13:26.667Z,13.75
2022-09-28T12:18:48.409Z,13.70
2022-09-28T12:23:54.309Z,13.60
2022-09-28T12:29:00.746Z,13.59
2022-09-28T12:34:03.070Z,13.62
2022-09-28T12:39:23.944Z,13.59
2022-09-28T12:44:59.514Z,13.58
2022-09-28T12:50:42.667Z,13.59
2022-09-28T12:56:21.549Z,13.67
2022-09-28T13:01:41.481Z,13.79
2022-09-28T13:07:05.022Z,13.88
2022-09-28T13:12:29.859Z,14.01
2022-09-28T13:17:34.356Z,14.19
2022-09-28T13:22:58.884Z,14.29
2022-09-28T13:28:05.749Z,14.43
2022-09-28T13:33:14.518Z,14.57
2022-09-28T13:38:29.691Z,14.57
2022-09-28T13:43:41.755Z,14.54
2022-09-28T13:48:53.037Z,14.58
2022-09-28T13:54:30.085Z,14.61
2022-09-28T13:59:41.685Z,14.68
2022-09-28T14:05:06.279Z,14.68
2022-09-28T14:10:19.234Z,14.65
2022-09-28T14:15:47.008Z,14.63
2022-09-28T14:21:14.830Z,14.61
2022-09-28T14:26:31.549Z,14.60
2022-09-28T14:31:33.562Z,14.57
2022-09-28T14:37:01.612Z,14.58
2022-09-28T14:42:09.861Z,14.61
2022-09-28T14:47:33.266Z,14.63
2022-09-28T14:52:46.538Z,14.63
2022-09-28T14:57:53.238Z,14.70
2022-09-28T15:02:59.584Z,14.81
2022-09-28T15:08:01.808Z,14.86
2022-09-28T15:13:06.087Z,14.88
2022-09-28T15:18:43.785Z,14.80
2022-09-28T15:23:46.777Z,14.78
2022-09-28T15:28:48.444Z,14.76
2022-09-28T15:34:08.652Z,14.74
2022-09-28T15:39:15.528Z,14.74
2022-09-28T15:44:32.947Z,14.69
2022-09-28T15:49:45.586Z,14.65
2022-09-28T15:54:47.816Z,14.65
2022-09-28T15:59:56.834Z,14.62
2022-09-28T16:05:00.856Z,14.60
2022-09-28T16:10:05.416Z,14.58
2022-09-28T16:15:23.327Z,14.56
2022-09-28T16:20:29.475Z,14.50
2022-09-28T16:25:33.214Z,14.43
2022-09-28T16:30:34.749Z,14.33
2022-09-28T16:35:42.378Z,14.27
2022-09-28T16:40:47.930Z,14.20
2022-09-28T16:45:50.181Z,14.18
2022-09-28T16:50:51.654Z,14.16
2022-09-28T16:55:53.143Z,14.11
2022-09-28T17:00:55.488Z,14.08
2022-09-28T17:05:57.033Z,14.06
2022-09-28T17:11:22.805Z,14.03
2022-09-28T17:21:53.120Z,13.94
2022-09-28T17:26:55.425Z,13.91
2022-09-28T17:31:57.112Z,13.87
2022-09-28T17:36:58.692Z,13.81
2022-09-28T17:42:00.181Z,13.75
2022-09-28T17:47:02.425Z,13.69
2022-09-28T17:52:05.458Z,13.64
2022-09-28T17:57:09.834Z,13.60
2022-09-28T18:02:11.795Z,13.57
2022-09-28T18:07:13.311Z,13.56
2022-09-28T18:12:14.803Z,13.54
2022-09-28T18:17:17.749Z,13.53
2022-09-28T18:22:19.302Z,13.49
2022-09-28T18:27:20.839Z,13.45
2022-09-28T18:32:22.925Z,13.39
2022-09-28T18:37:24.454Z,13.32
2022-09-28T18:42:25.984Z,13.27
2022-09-28T18:47:27.840Z,13.20
2022-09-28T18:52:29.413Z,13.17
2022-09-28T18:57:33.512Z,13.12
2022-09-28T19:02:35.720Z,13.08
2022-09-28T19:07:37.403Z,13.06
2022-09-28T19:12:39.034Z,13.04
2022-09-28T19:17:40.611Z,12.98
2022-09-28T19:22:43.150Z,12.96
2022-09-28T19:27:44.675Z,12.94
2022-09-28T19:32:46.143Z,12.91
2022-09-28T19:37:48.922Z,12.89
2022-09-28T19:42:50.447Z,12.87
2022-09-28T19:47:55.092Z,12.85
2022-09-28T19:53:01.578Z,12.85
2022-09-28T19:58:03.962Z,12.81
2022-09-28T20:03:05.607Z,12.78
2022-09-28T20:08:08.549Z,12.75
2022-09-28T20:13:10.094Z,12.72
2022-09-28T20:18:12.297Z,12.68
2022-09-28T20:23:15.805Z,12.68
2022-09-28T20:28:17.311Z,12.67
2022-09-28T20:33:27.430Z,12.65
2022-09-28T20:38:30.199Z,12.65
2022-09-28T20:43:31.744Z,12.65
2022-09-28T20:48:33.484Z,12.65
2022-09-28T20:53:35.157Z,12.64
2022-09-28T20:58:41.639Z,12.62
2022-09-28T21:03:52.097Z,12.61
2022-09-28T21:08:53.730Z,12.59
2022-09-28T21:13:58.859Z,12.59
2022-09-28T21:19:01.833Z,12.59
2022-09-28T21:24:04.755Z,12.60
2022-09-28T21:29:11.971Z,12.59
2022-09-28T21:34:20.310Z,12.59
2022-09-28T21:39:23.978Z,12.57
2022-09-28T21:44:25.688Z,12.57
2022-09-28T21:49:27.200Z,12.57
2022-09-28T21:54:28.881Z,12.53
2022-09-28T21:59:30.823Z,12.52
2022-09-28T22:04:33.980Z,12.47
2022-09-28T22:09:35.607Z,12.45
2022-09-28T22:14:37.187Z,12.41
2022-09-28T22:19:38.729Z,12.34
2022-09-28T22:24:40.291Z,12.29
2022-09-28T22:29:42.579Z,12.27
2022-09-28T22:34:44.127Z,12.23
2022-09-28T22:39:45.671Z,12.21
2022-09-28T22:44:47.675Z,12.18
2022-09-28T22:49:49.200Z,12.12
2022-09-28T22:54:51.268Z,12.08
2022-09-28T22:59:52.860Z,12.03
2022-09-28T23:04:54.490Z,12.01
2022-09-28T23:09:58.235Z,12.00
2022-09-28T23:14:59.820Z,11.97
2022-09-28T23:20:01.658Z,11.94
2022-09-28T23:25:03.315Z,11.90
2022-09-28T23:30:05.259Z,11.87
2022-09-28T23:35:07.618Z,11.86
2022-09-28T23:40:09.549Z,11.85
2022-09-28T23:45:11.140Z,11.84
2022-09-28T23:50:12.680Z,11.79
2022-09-28T23:55:14.344Z,11.74
